Time;durP1;ratioP1;P1;durP2;ratioP2;P2;SDS_P1;SDS_P2;PMS_P1;PMS_P2;Temp;Humidity;BMP_temperature;BMP_pressure;BME280_temperature;BME280_humidity;BME280_pressure;Samples;Min_cycle;Max_cycle;Signal;HPM_P1;HPM_P2
2023/06/28 00:01:14;;;;;;;8.13;5.38;;;21.80;72.40;;;;;;5034750;28;20092;-65
2023/06/28 00:03:40;;;;;;;10.38;5.63;;;21.80;72.40;;;;;;5034654;28;20037;-65
2023/06/28 00:06:06;;;;;;;8.80;5.60;;;21.80;72.20;;;;;;5034691;28;20025;-65
2023/06/28 00:08:32;;;;;;;8.55;5.00;;;21.80;72.20;;;;;;5035106;28;20036;-66
2023/06/28 00:10:59;;;;;;;7.30;4.60;;;21.70;71.40;;;;;;5034580;28;20025;-66
2023/06/28 00:13:24;;;;;;;9.43;5.32;;;21.70;71.10;;;;;;5034527;28;20036;-67
2023/06/28 00:15:51;;;;;;;6.82;4.90;;;21.70;70.90;;;;;;5034609;28;20100;-67
2023/06/28 00:18:16;;;;;;;6.85;4.80;;;21.80;71.10;;;;;;5034767;28;20358;-67
2023/06/28 00:20:42;;;;;;;7.93;5.15;;;21.70;71.10;;;;;;5034585;28;20092;-67
2023/06/28 00:23:09;;;;;;;8.68;4.95;;;21.70;71.30;;;;;;5035011;28;20124;-65
2023/06/28 00:25:35;;;;;;;7.15;4.85;;;21.70;71.20;;;;;;5034514;28;20025;-65
2023/06/28 00:28:02;;;;;;;8.13;4.65;;;21.70;71.60;;;;;;5034592;28;20087;-66
2023/06/28 00:30:28;;;;;;;6.93;4.43;;;21.70;71.10;;;;;;5016994;28;20414;-67
2023/06/28 00:32:54;;;;;;;5.50;3.75;;;21.70;70.50;;;;;;5034349;28;20025;-68
2023/06/28 00:35:20;;;;;;;8.38;4.25;;;21.70;70.40;;;;;;5034460;28;20018;-66
2023/06/28 00:37:45;;;;;;;4.93;3.58;;;21.80;70.50;;;;;;5034461;28;20389;-66
2023/06/28 00:40:11;;;;;;;4.88;3.40;;;21.70;69.80;;;;;;5034636;28;20022;-65
2023/06/28 00:42:37;;;;;;;5.63;3.50;;;21.70;69.50;;;;;;5034357;28;20100;-68
2023/06/28 00:45:04;;;;;;;5.93;3.30;;;21.80;68.90;;;;;;5034303;28;20514;-66
2023/06/28 00:47:30;;;;;;;4.72;3.58;;;21.80;69.00;;;;;;5034767;28;20040;-65
2023/06/28 00:49:57;;;;;;;4.97;3.40;;;21.80;68.90;;;;;;5034380;28;20352;-67
2023/06/28 00:52:23;;;;;;;7.28;3.80;;;21.90;68.80;;;;;;5038359;28;20033;-67
2023/06/28 00:54:50;;;;;;;4.47;3.40;;;21.80;68.80;;;;;;5038116;28;20390;-67
2023/06/28 00:57:16;;;;;;;5.95;3.33;;;21.90;68.20;;;;;;5037646;28;20094;-67
2023/06/28 00:59:42;;;;;;;6.43;3.38;;;21.90;68.00;;;;;;5037760;28;20089;-67
2023/06/28 01:02:10;;;;;;;5.70;3.58;;;21.90;67.60;;;;;;5037763;28;20159;-67
2023/06/28 01:04:40;;;;;;;5.50;3.10;;;21.90;67.80;;;;;;5020271;28;20355;-67
2023/06/28 01:07:08;;;;;;;2.90;2.42;;;21.90;67.90;;;;;;5038571;28;20060;-67
2023/06/28 01:09:34;;;;;;;5.72;3.00;;;21.90;67.80;;;;;;5037544;28;20030;-65
2023/06/28 01:12:01;;;;;;;5.13;3.00;;;21.90;67.90;;;;;;5037494;28;20026;-66
2023/06/28 01:14:28;;;;;;;4.65;2.90;;;21.90;67.60;;;;;;5037476;28;20413;-67
2023/06/28 01:16:54;;;;;;;5.18;2.72;;;21.90;67.60;;;;;;5037382;28;20040;-68
2023/06/28 01:19:25;;;;;;;5.40;2.90;;;21.90;66.90;;;;;;5036003;28;20096;-68
2023/06/28 01:21:57;;;;;;;5.10;3.00;;;21.90;67.00;;;;;;5037898;28;20030;-68
2023/06/28 01:24:25;;;;;;;4.68;2.85;;;22.00;66.90;;;;;;5037377;28;20029;-67
2023/06/28 01:26:58;;;;;;;4.18;2.80;;;22.00;66.80;;;;;;5037288;28;20034;-67
2023/06/28 01:29:24;;;;;;;3.70;2.78;;;22.00;66.80;;;;;;5036979;28;20048;-67
2023/06/28 01:31:55;;;;;;;4.15;2.60;;;22.00;66.60;;;;;;5037177;28;20052;-68
2023/06/28 01:34:26;;;;;;;4.75;2.85;;;22.10;66.60;;;;;;5037040;28;20026;-67
2023/06/28 01:36:54;;;;;;;4.65;2.72;;;22.10;66.60;;;;;;5037400;28;20487;-67
2023/06/28 01:39:21;;;;;;;4.70;3.03;;;22.10;66.70;;;;;;5036975;28;20022;-68
2023/06/28 01:41:48;;;;;;;3.08;2.50;;;22.20;66.70;;;;;;5037012;28;20447;-67
2023/06/28 01:44:14;;;;;;;2.50;2.25;;;22.20;66.50;;;;;;5037454;28;20029;-67
2023/06/28 01:46:41;;;;;;;2.92;2.33;;;22.20;66.50;;;;;;5037371;28;20414;-67
2023/06/28 01:49:07;;;;;;;4.65;2.90;;;22.20;66.50;;;;;;5036790;28;20030;-67
2023/06/28 01:51:34;;;;;;;3.55;2.33;;;22.30;66.60;;;;;;5019786;28;20033;-67
2023/06/28 01:54:02;;;;;;;3.90;2.45;;;22.30;66.40;;;;;;5037162;28;20052;-67
2023/06/28 01:56:28;;;;;;;2.92;2.30;;;22.40;66.30;;;;;;5036712;28;20391;-67
2023/06/28 01:58:54;;;;;;;3.53;2.50;;;22.40;66.20;;;;;;5036771;28;20365;-67
2023/06/28 02:01:21;;;;;;;4.68;2.92;;;22.40;66.10;;;;;;5036211;28;20060;-67
2023/06/28 02:03:46;;;;;;;3.55;2.30;;;22.30;66.10;;;;;;5035959;28;20474;-67
2023/06/28 02:06:15;;;;;;;3.67;2.70;;;22.30;66.00;;;;;;5036808;28;20038;-67
2023/06/28 02:08:41;;;;;;;3.47;2.20;;;22.40;66.00;;;;;;5036449;28;20022;-67
2023/06/28 02:11:07;;;;;;;4.55;3.30;;;22.30;65.60;;;;;;5036671;28;20037;-67
2023/06/28 02:13:33;;;;;;;4.28;2.90;;;22.30;65.30;;;;;;5036296;28;20033;-67
2023/06/28 02:16:01;;;;;;;4.10;2.78;;;22.30;64.70;;;;;;5036337;28;20026;-66
2023/06/28 02:18:28;;;;;;;4.57;3.08;;;22.20;64.50;;;;;;5036138;28;20017;-67
2023/06/28 02:20:54;;;;;;;4.55;2.90;;;22.20;64.40;;;;;;5036439;28;20021;-67
2023/06/28 02:23:20;;;;;;;4.35;2.78;;;22.20;64.30;;;;;;5036201;28;20116;-67
2023/06/28 02:25:47;;;;;;;5.10;3.10;;;22.10;64.30;;;;;;5036179;28;20037;-67
2023/06/28 02:28:13;;;;;;;3.55;2.83;;;22.10;64.40;;;;;;5036269;28;20029;-67
2023/06/28 02:30:39;;;;;;;6.53;2.63;;;22.00;64.40;;;;;;5036654;28;20037;-67
2023/06/28 02:33:05;;;;;;;4.57;2.80;;;22.00;64.50;;;;;;5035920;28;20351;-66
2023/06/28 02:35:31;;;;;;;3.95;2.72;;;22.00;64.60;;;;;;5036010;28;20514;-66
2023/06/28 02:37:57;;;;;;;4.07;3.00;;;22.00;64.70;;;;;;5035857;28;20195;-67
2023/06/28 02:40:26;;;;;;;4.20;2.78;;;22.00;64.80;;;;;;5018766;28;20056;-67
2023/06/28 02:42:52;;;;;;;3.20;2.47;;;21.90;64.80;;;;;;5036100;28;20064;-67
2023/06/28 02:45:18;;;;;;;3.50;2.60;;;21.90;64.90;;;;;;5035816;28;20061;-67
2023/06/28 02:47:44;;;;;;;3.25;2.38;;;21.90;65.00;;;;;;5035675;28;20071;-66
2023/06/28 02:50:10;;;;;;;5.28;2.78;;;21.90;65.10;;;;;;5035702;28;20033;-66
2023/06/28 02:52:36;;;;;;;3.50;2.08;;;21.90;65.10;;;;;;5035855;28;20029;-67
2023/06/28 02:55:02;;;;;;;4.35;2.70;;;21.90;65.20;;;;;;5035637;28;20101;-67
2023/06/28 02:57:28;;;;;;;4.10;2.60;;;21.90;65.20;;;;;;5035764;28;20018;-66
2023/06/28 02:59:54;;;;;;;3.60;2.50;;;21.90;65.30;;;;;;5036088;28;20435;-66
2023/06/28 03:02:20;;;;;;;3.15;2.63;;;21.90;65.30;;;;;;5035517;28;20101;-67
2023/06/28 03:04:46;;;;;;;2.78;2.40;;;21.90;65.40;;;;;;5035432;28;20339;-67
2023/06/28 03:07:16;;;;;;;6.65;2.70;;;21.90;65.40;;;;;;5035833;28;20036;-66
2023/06/28 03:09:42;;;;;;;3.13;2.38;;;21.90;65.40;;;;;;5035392;28;20013;-66
2023/06/28 03:12:09;;;;;;;4.40;2.67;;;21.90;65.40;;;;;;5035293;28;20022;-66
2023/06/28 03:14:35;;;;;;;4.03;2.70;;;21.90;65.40;;;;;;5034940;28;20032;-67
2023/06/28 03:17:01;;;;;;;4.13;2.80;;;21.90;65.60;;;;;;5035205;28;20025;-67
2023/06/28 03:19:27;;;;;;;3.90;2.67;;;21.80;65.70;;;;;;5035531;28;20073;-67
2023/06/28 03:21:53;;;;;;;3.88;2.97;;;21.80;66.00;;;;;;5035478;28;20025;-66
2023/06/28 03:24:19;;;;;;;3.72;2.60;;;21.70;66.00;;;;;;5035221;28;20025;-66
2023/06/28 03:26:45;;;;;;;4.47;3.10;;;21.70;66.20;;;;;;5035378;28;20039;-66
2023/06/28 03:29:11;;;;;;;4.28;2.58;;;21.60;66.40;;;;;;5034650;28;20345;-66
2023/06/28 03:31:37;;;;;;;3.22;2.78;;;21.60;66.40;;;;;;5037947;28;20380;-67
2023/06/28 03:34:03;;;;;;;6.70;2.80;;;21.50;66.40;;;;;;5038235;28;20109;-67
2023/06/28 03:36:29;;;;;;;3.70;2.72;;;21.50;66.50;;;;;;5037309;28;20053;-67
2023/06/28 03:38:55;;;;;;;5.18;3.08;;;21.50;66.60;;;;;;5035174;28;20040;-67
2023/06/28 03:41:21;;;;;;;5.40;3.28;;;21.50;66.90;;;;;;5035477;28;20022;-66
2023/06/28 03:43:47;;;;;;;3.17;2.70;;;21.40;67.40;;;;;;5035382;28;20351;-66
2023/06/28 03:46:13;;;;;;;3.90;3.00;;;21.40;67.40;;;;;;5035189;28;20025;-67
2023/06/28 03:48:39;;;;;;;3.85;2.80;;;21.40;67.60;;;;;;5034866;28;20098;-67
2023/06/28 03:51:05;;;;;;;4.18;2.90;;;21.40;67.80;;;;;;5035106;28;20030;-67
2023/06/28 03:53:31;;;;;;;3.80;2.70;;;21.40;67.90;;;;;;5035004;28;20033;-66
2023/06/28 03:55:57;;;;;;;7.82;3.58;;;21.30;67.90;;;;;;5034851;28;20447;-66
2023/06/28 03:58:23;;;;;;;7.93;3.38;;;21.30;68.00;;;;;;5034867;28;20021;-67
2023/06/28 04:00:49;;;;;;;4.82;3.10;;;21.30;68.00;;;;;;5034761;28;20101;-67
2023/06/28 04:03:18;;;;;;;4.50;3.17;;;21.40;68.20;;;;;;5034680;28;20043;-67
2023/06/28 04:05:44;;;;;;;5.43;3.10;;;21.40;68.10;;;;;;5034737;28;20026;-67
2023/06/28 04:08:11;;;;;;;5.78;3.55;;;21.40;68.40;;;;;;5017136;28;20383;-66
2023/06/28 04:10:40;;;;;;;5.88;3.78;;;21.40;68.60;;;;;;5034941;28;20064;-66
2023/06/28 04:13:06;;;;;;;8.55;3.78;;;21.30;68.60;;;;;;5017102;28;20084;-66
2023/06/28 04:15:32;;;;;;;4.78;3.50;;;21.30;68.40;;;;;;5034866;28;20037;-66
2023/06/28 04:17:58;;;;;;;5.20;3.40;;;21.20;68.30;;;;;;5034803;28;20021;-66
2023/06/28 04:20:24;;;;;;;6.10;3.63;;;21.20;68.10;;;;;;5034641;28;20060;-67
2023/06/28 04:22:50;;;;;;;7.13;3.75;;;21.20;68.20;;;;;;5034520;28;20045;-67
2023/06/28 04:25:16;;;;;;;6.43;3.47;;;21.20;68.00;;;;;;5035679;28;20029;-67
2023/06/28 04:27:42;;;;;;;7.50;3.75;;;21.20;67.90;;;;;;5020857;28;20041;-67
2023/06/28 04:30:08;;;;;;;5.78;3.47;;;21.30;67.80;;;;;;5017376;28;20491;-66
2023/06/28 04:32:34;;;;;;;5.45;3.70;;;21.30;67.70;;;;;;5018984;28;20333;-66
2023/06/28 04:35:01;;;;;;;6.03;3.40;;;21.30;67.50;;;;;;5018507;28;20026;-67
2023/06/28 04:37:28;;;;;;;5.63;3.70;;;21.40;67.50;;;;;;5018350;28;20036;-66
2023/06/28 04:39:58;;;;;;;8.40;3.90;;;21.40;67.60;;;;;;5018674;28;20106;-67
2023/06/28 04:42:24;;;;;;;5.85;3.85;;;21.40;67.40;;;;;;5018624;28;20045;-67
2023/06/28 04:44:50;;;;;;;6.05;3.80;;;21.40;67.30;;;;;;5017375;28;20022;-66
2023/06/28 04:47:17;;;;;;;6.00;3.47;;;21.40;67.30;;;;;;5017252;28;20036;-66
2023/06/28 04:49:50;;;;;;;5.82;3.55;;;21.40;67.20;;;;;;5017613;28;20050;-67
2023/06/28 04:52:18;;;;;;;4.80;3.43;;;21.40;67.00;;;;;;5018496;28;20033;-66
2023/06/28 04:54:46;;;;;;;6.07;3.70;;;21.50;66.90;;;;;;5018411;28;20041;-66
2023/06/28 04:57:13;;;;;;;5.65;3.40;;;21.50;66.90;;;;;;5018035;28;20462;-66
2023/06/28 04:59:39;;;;;;;5.57;3.53;;;21.60;66.70;;;;;;5018078;28;20076;-66
2023/06/28 05:02:05;;;;;;;6.80;3.58;;;21.60;66.70;;;;;;5018257;28;20444;-66
2023/06/28 05:04:35;;;;;;;4.78;3.38;;;21.70;66.60;;;;;;5018176;28;20061;-66
2023/06/28 05:07:06;;;;;;;4.60;3.28;;;21.80;66.30;;;;;;5017787;28;20038;-67
2023/06/28 05:09:33;;;;;;;6.40;3.40;;;21.80;65.90;;;;;;5000741;28;20352;-66
2023/06/28 05:12:00;;;;;;;5.85;3.20;;;21.90;65.60;;;;;;5017822;28;20053;-66
2023/06/28 05:14:26;;;;;;;8.38;4.00;;;22.10;65.40;;;;;;5017711;28;20427;-66
2023/06/28 05:16:52;;;;;;;8.25;4.45;;;22.30;65.10;;;;;;5017659;28;20360;-67
2023/06/28 05:19:19;;;;;;;5.32;3.55;;;22.40;64.70;;;;;;5018132;28;20452;-68
2023/06/28 05:21:47;;;;;;;5.70;4.03;;;22.60;64.10;;;;;;5017638;28;20073;-67
2023/06/28 05:24:15;;;;;;;5.85;3.67;;;23.10;63.40;;;;;;5017886;28;20018;-66
2023/06/28 05:26:42;;;;;;;6.63;3.63;;;23.60;62.20;;;;;;5016525;28;20408;-69
2023/06/28 05:29:08;;;;;;;6.78;3.38;;;24.20;60.80;;;;;;5023459;28;20053;-69
2023/06/28 05:31:36;;;;;;;5.32;3.28;;;24.60;60.10;;;;;;5037182;28;20135;-69
2023/06/28 05:34:02;;;;;;;6.25;3.50;;;25.00;59.10;;;;;;5037321;28;20022;-67
2023/06/28 05:36:29;;;;;;;5.78;3.67;;;25.40;57.80;;;;;;5036978;28;20375;-68
2023/06/28 05:38:56;;;;;;;5.57;3.40;;;25.90;57.10;;;;;;5037193;28;20030;-68
2023/06/28 05:41:22;;;;;;;5.68;3.40;;;26.40;56.30;;;;;;5037249;28;20040;-67
2023/06/28 05:43:48;;;;;;;6.93;3.90;;;27.10;55.00;;;;;;5036980;28;20079;-72
2023/06/28 05:46:14;;;;;;;5.97;3.40;;;27.90;53.10;;;;;;5036859;28;20033;-69
2023/06/28 05:48:40;;;;;;;4.70;3.47;;;28.80;52.10;;;;;;5036856;28;20029;-70
2023/06/28 05:51:09;;;;;;;7.53;3.70;;;30.00;50.10;;;;;;5037374;28;20041;-68
2023/06/28 05:53:39;;;;;;;7.55;4.05;;;31.30;47.00;;;;;;5036580;28;20534;-67
2023/06/28 05:56:05;;;;;;;7.35;3.67;;;32.20;45.00;;;;;;5037109;28;20021;-68
2023/06/28 05:58:32;;;;;;;7.68;3.78;;;32.10;43.80;;;;;;5036634;28;20022;-68
2023/06/28 06:00:59;;;;;;;6.50;4.00;;;31.00;43.00;;;;;;5019259;28;20440;-67
2023/06/28 06:03:25;;;;;;;7.25;4.32;;;30.00;45.30;;;;;;5036902;28;20025;-68
2023/06/28 06:05:51;;;;;;;6.45;4.18;;;29.70;46.60;;;;;;5036574;28;20444;-68
2023/06/28 06:08:17;;;;;;;6.95;4.05;;;29.20;46.90;;;;;;5036384;28;20029;-68
2023/06/28 06:10:43;;;;;;;7.60;4.25;;;28.70;48.10;;;;;;5036770;28;20026;-68
2023/06/28 06:13:09;;;;;;;5.50;4.10;;;28.30;48.70;;;;;;5036584;28;20071;-68
2023/06/28 06:15:35;;;;;;;7.53;4.35;;;28.00;49.40;;;;;;5036665;28;20478;-68
2023/06/28 06:18:01;;;;;;;7.95;4.65;;;27.60;49.30;;;;;;5036493;28;20079;-68
2023/06/28 06:20:27;;;;;;;6.05;4.30;;;26.90;49.70;;;;;;5036764;28;20025;-67
2023/06/28 06:22:53;;;;;;;5.82;3.78;;;26.60;50.50;;;;;;5036101;28;20038;-67
2023/06/28 06:25:19;;;;;;;6.80;3.78;;;26.70;50.90;;;;;;5036216;28;20033;-68
2023/06/28 06:27:45;;;;;;;9.30;4.00;;;26.70;51.30;;;;;;5036622;28;20018;-68
2023/06/28 06:30:11;;;;;;;6.40;3.67;;;26.80;49.80;;;;;;5035996;28;20065;-68
2023/06/28 06:32:37;;;;;;;5.78;3.85;;;26.60;49.60;;;;;;5035981;28;20458;-68
2023/06/28 06:35:03;;;;;;;6.10;3.72;;;26.90;48.80;;;;;;5035987;28;20025;-67
2023/06/28 06:37:30;;;;;;;7.88;4.18;;;27.00;48.60;;;;;;5035927;28;20032;-67
2023/06/28 06:39:56;;;;;;;7.43;3.70;;;27.20;48.20;;;;;;5035955;28;20026;-68
2023/06/28 06:42:21;;;;;;;6.18;3.65;;;27.60;47.60;;;;;;5036406;28;20075;-67
2023/06/28 06:44:47;;;;;;;4.95;3.47;;;27.90;47.00;;;;;;5035899;28;20435;-67
2023/06/28 06:47:13;;;;;;;5.25;3.70;;;28.30;45.70;;;;;;5018521;28;20391;-67
2023/06/28 06:49:39;;;;;;;5.28;3.65;;;28.40;45.50;;;;;;5035256;28;20022;-67
2023/06/28 06:52:06;;;;;;;6.35;3.63;;;28.10;44.70;;;;;;5036029;28;20032;-68
2023/06/28 06:54:32;;;;;;;5.35;3.90;;;27.80;45.50;;;;;;5035899;28;20038;-68
2023/06/28 06:56:59;;;;;;;5.72;3.80;;;27.40;46.00;;;;;;5035842;28;20105;-67
2023/06/28 06:59:26;;;;;;;6.57;3.90;;;27.40;47.20;;;;;;5018524;28;20029;-68
2023/06/28 07:01:52;;;;;;;5.75;3.90;;;27.40;46.40;;;;;;5018159;28;20021;-67
2023/06/28 07:04:21;;;;;;;6.43;3.67;;;27.40;47.30;;;;;;5018252;28;20397;-67
2023/06/28 07:06:47;;;;;;;6.35;4.10;;;27.70;47.40;;;;;;5035509;28;20055;-68
2023/06/28 07:09:15;;;;;;;5.43;3.80;;;27.80;46.80;;;;;;5035445;28;20036;-67
2023/06/28 07:11:41;;;;;;;5.95;3.50;;;27.80;46.30;;;;;;5035285;28;20036;-68
2023/06/28 07:14:07;;;;;;;6.30;3.30;;;27.90;45.90;;;;;;5017988;28;20033;-68
2023/06/28 07:16:34;;;;;;;7.07;3.30;;;28.00;45.70;;;;;;5035364;28;20067;-68
2023/06/28 07:19:00;;;;;;;6.10;3.55;;;28.10;45.20;;;;;;5035427;28;20026;-67
2023/06/28 07:21:26;;;;;;;5.05;3.45;;;28.00;45.30;;;;;;5035479;28;20025;-68
2023/06/28 07:23:54;;;;;;;5.28;3.72;;;28.10;44.80;;;;;;5035233;28;20044;-68
2023/06/28 07:26:20;;;;;;;6.63;3.67;;;28.00;44.50;;;;;;5035166;28;20060;-68
2023/06/28 07:28:46;;;;;;;7.53;3.72;;;27.90;43.90;;;;;;5035028;28;20093;-67
2023/06/28 07:31:12;;;;;;;7.60;3.65;;;27.70;44.70;;;;;;5035439;28;20112;-68
2023/06/28 07:33:40;;;;;;;6.75;3.67;;;27.70;45.30;;;;;;5035048;28;20108;-67
2023/06/28 07:36:06;;;;;;;5.80;3.53;;;27.60;45.40;;;;;;5035567;28;20075;-68
2023/06/28 07:38:32;;;;;;;7.88;3.80;;;27.50;45.40;;;;;;5035234;28;20025;-67
2023/06/28 07:40:58;;;;;;;8.07;3.67;;;27.20;46.20;;;;;;5035476;28;20386;-68
2023/06/28 07:43:24;;;;;;;5.28;3.63;;;27.00;47.00;;;;;;5034966;28;20493;-67
2023/06/28 07:45:52;;;;;;;5.43;3.78;;;27.00;47.00;;;;;;5035189;28;20037;-67
2023/06/28 07:48:18;;;;;;;8.18;3.78;;;27.30;46.70;;;;;;5034803;28;20034;-67
2023/06/28 07:50:47;;;;;;;4.68;3.25;;;27.40;46.90;;;;;;5035086;28;20394;-68
2023/06/28 07:53:13;;;;;;;7.13;3.78;;;27.50;46.60;;;;;;5035014;28;20380;-68
2023/06/28 07:55:39;;;;;;;4.38;3.50;;;27.60;45.20;;;;;;5035325;28;20091;-67
2023/06/28 07:58:05;;;;;;;8.55;3.70;;;27.60;45.10;;;;;;5035229;28;20029;-68
2023/06/28 08:00:31;;;;;;;5.63;3.30;;;27.60;45.30;;;;;;5035894;28;20032;-67
2023/06/28 08:02:58;;;;;;;5.57;3.47;;;27.60;45.60;;;;;;5039331;28;20135;-67
2023/06/28 08:05:24;;;;;;;5.38;3.80;;;27.50;46.00;;;;;;5039079;28;20021;-67
2023/06/28 08:07:53;;;;;;;7.78;3.67;;;27.30;45.60;;;;;;5038943;28;20040;-68
2023/06/28 08:10:19;;;;;;;7.53;3.78;;;27.20;47.20;;;;;;5038596;28;20043;-67
2023/06/28 08:12:45;;;;;;;5.32;3.70;;;27.30;47.20;;;;;;5038840;28;20104;-67
2023/06/28 08:15:11;;;;;;;6.38;3.60;;;27.30;47.40;;;;;;5038651;28;20025;-68
2023/06/28 08:17:37;;;;;;;9.10;3.80;;;27.40;48.40;;;;;;5038552;28;20503;-68
2023/06/28 08:20:03;;;;;;;7.95;3.95;;;27.20;48.30;;;;;;5038778;28;20087;-68
2023/06/28 08:22:29;;;;;;;6.05;4.03;;;27.30;47.70;;;;;;5038705;28;20383;-67
2023/06/28 08:24:55;;;;;;;6.45;3.72;;;27.20;47.70;;;;;;5038453;28;20052;-67
2023/06/28 08:27:21;;;;;;;8.32;4.07;;;27.20;47.90;;;;;;5038777;28;20402;-68
2023/06/28 08:29:47;;;;;;;5.50;4.00;;;27.10;48.30;;;;;;5038549;28;20125;-67
2023/06/28 08:32:13;;;;;;;5.63;3.90;;;27.00;48.50;;;;;;5038580;28;20083;-68
2023/06/28 08:34:40;;;;;;;6.57;4.00;;;27.20;48.50;;;;;;5038233;28;20104;-67
2023/06/28 08:37:06;;;;;;;7.07;3.85;;;27.00;48.00;;;;;;5038047;28;20423;-67
2023/06/28 08:39:32;;;;;;;6.60;3.80;;;26.80;47.60;;;;;;5038172;28;20434;-68
2023/06/28 08:42:01;;;;;;;7.40;3.72;;;26.60;48.40;;;;;;5038159;28;20462;-68
2023/06/28 08:44:31;;;;;;;10.20;3.90;;;26.70;46.70;;;;;;5038103;28;20124;-67
2023/06/28 08:46:58;;;;;;;5.85;3.60;;;26.40;46.80;;;;;;5038344;28;20029;-68
2023/06/28 08:49:25;;;;;;;7.70;3.58;;;26.40;47.10;;;;;;5037949;28;20045;-67
2023/06/28 08:51:52;;;;;;;10.05;4.65;;;26.40;48.20;;;;;;5037967;28;20072;-67
2023/06/28 08:54:21;;;;;;;10.85;3.85;;;26.40;46.70;;;;;;5038142;28;20042;-67
2023/06/28 08:56:48;;;;;;;5.55;4.00;;;26.30;46.80;;;;;;5037876;28;20055;-68
2023/06/28 08:59:15;;;;;;;7.25;4.28;;;26.50;47.10;;;;;;5037696;28;20025;-68
2023/06/28 09:01:41;;;;;;;7.32;4.05;;;26.60;48.20;;;;;;5038024;28;20018;-68
2023/06/28 09:04:07;;;;;;;6.93;3.90;;;26.60;47.20;;;;;;5037772;28;20091;-67
2023/06/28 09:06:34;;;;;;;8.10;3.90;;;26.70;47.50;;;;;;5037647;28;20033;-68
2023/06/28 09:09:01;;;;;;;6.53;4.18;;;26.80;47.30;;;;;;5038132;28;20025;-67
2023/06/28 09:11:27;;;;;;;6.22;4.22;;;26.90;46.50;;;;;;5037335;28;20026;-68
2023/06/28 09:13:53;;;;;;;7.60;4.15;;;26.80;46.60;;;;;;5037491;28;20029;-67
2023/06/28 09:16:20;;;;;;;9.82;4.38;;;26.70;47.40;;;;;;5037420;28;20068;-67
2023/06/28 09:18:46;;;;;;;7.38;4.20;;;26.60;48.00;;;;;;5037381;28;20031;-68
2023/06/28 09:21:28;;;;;;;10.30;4.50;;;26.50;47.50;;;;;;5037358;28;20486;-67
2023/06/28 09:23:54;;;;;;;6.78;3.95;;;26.40;47.70;;;;;;5037217;28;20104;-67
2023/06/28 09:26:33;;;;;;;7.10;4.00;;;26.60;47.50;;;;;;5037590;28;20029;-67
2023/06/28 09:29:12;;;;;;;6.55;4.07;;;26.80;47.10;;;;;;5019729;28;20072;-67
2023/06/28 09:31:42;;;;;;;5.82;3.70;;;26.90;46.90;;;;;;5037213;28;20416;-68
2023/06/28 09:34:09;;;;;;;6.45;4.30;;;26.70;46.90;;;;;;5037416;28;20112;-67
2023/06/28 09:36:38;;;;;;;8.25;4.30;;;26.60;46.90;;;;;;5037159;28;20029;-67
2023/06/28 09:39:05;;;;;;;7.57;4.57;;;26.30;47.60;;;;;;5037122;28;20427;-67
2023/06/28 09:41:40;;;;;;;6.50;4.07;;;26.40;48.20;;;;;;5037334;28;20120;-67
2023/06/28 09:44:10;;;;;;;6.00;3.75;;;26.50;48.10;;;;;;5037272;28;20033;-67
2023/06/28 09:46:46;;;;;;;6.97;3.72;;;26.60;47.10;;;;;;5037017;28;20455;-67
2023/06/28 09:49:24;;;;;;;5.95;3.47;;;26.70;46.90;;;;;;5036902;28;20036;-67
2023/06/28 09:52:03;;;;;;;5.53;3.30;;;26.80;46.20;;;;;;5037072;28;20025;-68
2023/06/28 09:54:32;;;;;;;6.15;4.05;;;26.90;44.50;;;;;;5036681;28;20029;-67
2023/06/28 09:57:00;;;;;;;5.70;3.70;;;27.00;45.30;;;;;;5037300;28;20071;-67
2023/06/28 09:59:30;;;;;;;8.25;3.92;;;27.10;44.80;;;;;;5037009;28;20044;-68
2023/06/28 10:01:58;;;;;;;5.65;3.40;;;27.10;44.10;;;;;;5037025;28;20022;-67
2023/06/28 10:04:30;;;;;;;5.20;3.60;;;27.20;44.80;;;;;;5036570;28;20044;-68
2023/06/28 10:07:01;;;;;;;6.88;3.83;;;27.20;44.00;;;;;;5036859;28;20025;-67
2023/06/28 10:09:40;;;;;;;6.63;3.53;;;27.20;43.50;;;;;;5036865;28;20025;-67
2023/06/28 10:12:15;;;;;;;6.13;3.20;;;27.20;44.90;;;;;;5037027;28;20343;-68
2023/06/28 10:14:52;;;;;;;6.95;3.90;;;27.20;45.10;;;;;;5036709;28;20072;-68
2023/06/28 10:17:19;;;;;;;5.55;3.55;;;27.30;44.80;;;;;;5019313;28;20021;-67
2023/06/28 10:19:46;;;;;;;6.65;3.45;;;27.30;44.70;;;;;;5019354;28;20022;-67
2023/06/28 10:22:14;;;;;;;5.25;3.55;;;27.30;43.70;;;;;;5036448;28;20028;-67
2023/06/28 10:24:42;;;;;;;6.55;3.20;;;27.20;44.10;;;;;;5035818;28;20025;-67
2023/06/28 10:27:08;;;;;;;6.53;3.15;;;27.20;43.80;;;;;;5036217;28;20037;-68
2023/06/28 10:29:35;;;;;;;7.20;3.60;;;27.20;43.10;;;;;;5036098;28;20041;-67
2023/06/28 10:32:02;;;;;;;4.97;3.00;;;27.00;42.10;;;;;;5036677;28;20458;-67
2023/06/28 10:34:28;;;;;;;7.22;3.38;;;26.90;43.10;;;;;;5036038;28;20035;-67
2023/06/28 10:36:56;;;;;;;5.25;3.38;;;26.70;43.30;;;;;;5036558;28;20305;-67
2023/06/28 10:39:22;;;;;;;7.10;3.20;;;26.60;43.30;;;;;;5036189;28;20038;-68
2023/06/28 10:41:56;;;;;;;7.25;3.10;;;26.50;43.70;;;;;;5036477;28;20017;-67
2023/06/28 10:44:22;;;;;;;8.48;3.38;;;26.50;44.10;;;;;;5018416;28;20415;-68
2023/06/28 10:47:07;;;;;;;5.25;3.33;;;26.60;44.50;;;;;;5019094;28;20030;-68
2023/06/28 10:49:38;;;;;;;6.75;3.10;;;26.60;44.60;;;;;;5036133;28;20427;-68
2023/06/28 10:52:12;;;;;;;6.97;3.15;;;26.60;44.50;;;;;;5018955;28;20163;-67
2023/06/28 10:54:38;;;;;;;4.78;3.30;;;26.60;45.30;;;;;;5035982;28;20029;-68
2023/06/28 10:57:10;;;;;;;5.00;3.22;;;26.50;45.50;;;;;;5036076;28;20022;-68
2023/06/28 10:59:46;;;;;;;6.63;3.40;;;26.70;45.00;;;;;;5035931;28;20083;-68
2023/06/28 11:02:11;;;;;;;5.25;3.13;;;26.80;44.90;;;;;;5035880;28;20100;-68
2023/06/28 11:04:54;;;;;;;5.22;3.30;;;26.80;44.80;;;;;;5035968;28;20107;-67
2023/06/28 11:07:23;;;;;;;4.38;2.90;;;26.80;45.20;;;;;;5035964;28;20043;-67
2023/06/28 11:10:09;;;;;;;7.65;3.42;;;26.90;44.80;;;;;;5035714;28;20025;-68
2023/06/28 11:12:36;;;;;;;7.45;3.42;;;26.90;44.50;;;;;;5035917;28;20033;-68
2023/06/28 11:15:13;;;;;;;6.03;3.30;;;26.90;43.90;;;;;;5018613;28;20052;-67
2023/06/28 11:17:40;;;;;;;7.88;3.28;;;26.90;44.10;;;;;;5017911;28;20457;-68
2023/06/28 11:20:07;;;;;;;4.30;2.88;;;26.90;43.60;;;;;;5035863;28;20029;-67
2023/06/28 11:22:53;;;;;;;3.22;2.83;;;26.90;44.10;;;;;;5035301;28;20104;-68
2023/06/28 11:25:29;;;;;;;5.40;3.10;;;26.80;43.70;;;;;;5001601;28;20017;-68
2023/06/28 11:28:03;;;;;;;5.93;3.40;;;26.80;44.10;;;;;;5035303;28;20321;-68
2023/06/28 11:30:56;;;;;;;5.18;3.03;;;26.90;44.40;;;;;;5034984;28;20041;-70
2023/06/28 11:33:24;;;;;;;3.92;3.10;;;27.00;44.30;;;;;;5035376;28;20495;-68
2023/06/28 11:35:56;;;;;;;4.40;2.92;;;27.20;44.20;;;;;;5034847;28;20501;-68
2023/06/28 11:38:23;;;;;;;6.13;2.88;;;27.30;44.20;;;;;;5034934;28;20104;-68
2023/06/28 11:40:49;;;;;;;4.70;2.90;;;27.30;44.00;;;;;;5017579;28;20026;-67
2023/06/28 11:43:21;;;;;;;5.55;2.90;;;27.40;44.00;;;;;;5035499;28;20112;-68
2023/06/28 11:45:50;;;;;;;6.15;3.20;;;27.40;43.90;;;;;;5034983;28;20080;-70
2023/06/28 11:48:17;;;;;;;3.95;2.83;;;27.50;43.90;;;;;;5035111;28;20034;-70
2023/06/28 11:50:45;;;;;;;7.75;3.25;;;27.60;44.00;;;;;;5018304;28;20025;-70
2023/06/28 11:53:12;;;;;;;4.35;3.00;;;27.60;43.80;;;;;;5017533;28;20070;-70
2023/06/28 11:55:38;;;;;;;5.57;3.00;;;27.60;44.00;;;;;;5017916;28;20049;-70
2023/06/28 11:58:06;;;;;;;5.57;2.90;;;27.60;44.30;;;;;;5035291;28;20022;-68
2023/06/28 12:00:39;;;;;;;6.53;3.10;;;27.50;44.00;;;;;;5034786;28;20052;-67
2023/06/28 12:03:05;;;;;;;6.32;3.40;;;27.60;44.40;;;;;;5034775;28;20033;-70
2023/06/28 12:05:31;;;;;;;5.30;2.92;;;27.60;43.90;;;;;;5034797;28;20071;-70
2023/06/28 12:07:57;;;;;;;4.57;3.10;;;27.60;44.20;;;;;;5034736;28;20466;-70
2023/06/28 12:10:23;;;;;;;9.20;3.60;;;27.60;44.30;;;;;;5034826;28;20029;-70
2023/06/28 12:12:48;;;;;;;6.28;2.83;;;27.70;44.50;;;;;;5034670;28;20044;-70
2023/06/28 12:15:21;;;;;;;3.47;2.88;;;27.70;44.50;;;;;;5035255;28;20097;-70
2023/06/28 12:17:47;;;;;;;5.93;3.47;;;27.80;44.40;;;;;;5035210;28;20033;-70
2023/06/28 12:20:14;;;;;;;8.50;3.20;;;27.80;44.10;;;;;;5034621;28;20116;-70
2023/06/28 12:22:42;;;;;;;6.15;3.00;;;27.70;44.20;;;;;;5034723;28;20447;-70
2023/06/28 12:25:09;;;;;;;5.93;3.08;;;27.70;44.40;;;;;;5034854;28;20046;-70
2023/06/28 12:27:38;;;;;;;3.70;2.95;;;27.70;44.40;;;;;;5034580;28;20026;-70
2023/06/28 12:30:11;;;;;;;3.47;2.75;;;27.80;44.40;;;;;;5034533;28;20092;-70
2023/06/28 12:32:46;;;;;;;4.22;2.95;;;27.90;44.60;;;;;;5017221;28;20080;-70
2023/06/28 12:35:25;;;;;;;4.50;2.90;;;27.90;44.60;;;;;;5034781;28;20025;-70
2023/06/28 12:37:57;;;;;;;4.35;3.00;;;28.00;44.80;;;;;;5034439;28;20079;-70
2023/06/28 12:40:28;;;;;;;6.43;3.10;;;28.10;44.40;;;;;;5034537;28;20354;-70
2023/06/28 12:43:15;;;;;;;6.00;3.05;;;28.20;44.00;;;;;;5034482;28;20030;-70
2023/06/28 12:46:03;;;;;;;7.47;3.22;;;28.30;43.10;;;;;;5034424;28;20029;-70
2023/06/28 12:48:32;;;;;;;3.45;2.80;;;28.30;43.10;;;;;;5038618;28;20029;-68